createdAt,value
2017-03-30T00:00:54.139Z,26.54
2017-03-30T00:02:03.164Z,26.64
2017-03-30T00:03:11.925Z,26.54
2017-03-30T00:04:20.991Z,26.54
2017-03-30T00:05:29.755Z,26.54
2017-03-30T00:06:38.519Z,26.82
2017-03-30T00:07:47.249Z,26.54
2017-03-30T00:08:55.945Z,26.82
2017-03-30T00:10:04.966Z,27.02
2017-03-30T00:11:14.046Z,26.54
2017-03-30T00:12:23.444Z,26.82
2017-03-30T00:13:32.202Z,26.73
2017-03-30T00:14:40.978Z,26.54
2017-03-30T00:15:50.022Z,26.54
2017-03-30T00:16:59.050Z,26.73
2017-03-30T00:18:08.432Z,26.64
2017-03-30T00:19:17.201Z,26.64
2017-03-30T00:20:25.956Z,26.54
2017-03-30T00:21:35.021Z,26.64
2017-03-30T00:22:44.747Z,26.54
2017-03-30T00:23:53.479Z,26.73
2017-03-30T00:25:02.201Z,26.64
2017-03-30T00:26:11.874Z,26.73
2017-03-30T00:27:20.942Z,26.73
2017-03-30T00:28:29.982Z,26.64
2017-03-30T00:29:39.011Z,26.54
2017-03-30T00:30:48.071Z,26.73
2017-03-30T00:31:57.417Z,26.64
2017-03-30T00:33:06.414Z,26.73
2017-03-30T00:34:15.433Z,26.64
2017-03-30T00:35:24.186Z,26.82
2017-03-30T00:36:32.951Z,26.54
2017-03-30T00:37:41.699Z,26.54
2017-03-30T00:38:50.423Z,27.02
2017-03-30T00:39:59.491Z,26.54
2017-03-30T00:41:08.249Z,26.73
2017-03-30T00:42:16.991Z,26.73
2017-03-30T00:43:25.689Z,26.82
2017-03-30T00:44:34.710Z,26.92
2017-03-30T00:45:43.777Z,26.73
2017-03-30T00:46:52.835Z,26.73
2017-03-30T00:48:01.623Z,26.82
2017-03-30T00:49:10.400Z,26.82
2017-03-30T00:50:19.773Z,26.92
2017-03-30T00:51:28.833Z,26.73
2017-03-30T00:52:37.597Z,26.73
2017-03-30T00:53:46.670Z,26.54
2017-03-30T00:54:55.628Z,26.54
2017-03-30T00:56:04.400Z,26.64
2017-03-30T00:57:13.465Z,26.64
2017-03-30T00:58:22.230Z,27.12
2017-03-30T00:59:30.962Z,27.02
2017-03-30T01:00:39.978Z,26.64
2017-03-30T01:01:48.746Z,26.82
2017-03-30T01:02:57.516Z,26.92
2017-03-30T01:04:06.278Z,26.73
2017-03-30T01:05:15.039Z,26.82
2017-03-30T01:06:24.005Z,26.92
2017-03-30T01:07:32.771Z,26.92
2017-03-30T01:08:41.528Z,26.72
2017-03-30T01:09:50.295Z,26.82
2017-03-30T01:10:59.049Z,27.11
2017-03-30T01:12:08.129Z,26.62
2017-03-30T01:13:16.888Z,26.91
2017-03-30T01:14:25.628Z,26.82
2017-03-30T01:15:34.347Z,26.82
2017-03-30T01:16:43.736Z,26.81
2017-03-30T01:17:52.468Z,26.72
2017-03-30T01:19:01.189Z,26.72
2017-03-30T01:20:09.949Z,27.11
2017-03-30T01:21:19.011Z,27.01
2017-03-30T01:22:27.772Z,26.64
2017-03-30T01:23:36.531Z,26.81
2017-03-30T01:24:45.300Z,26.62
2017-03-30T01:25:54.992Z,26.53
2017-03-30T01:27:04.056Z,26.72
2017-03-30T01:28:12.816Z,26.72
2017-03-30T01:29:21.579Z,26.72
2017-03-30T01:30:30.336Z,26.81
2017-03-30T01:31:39.379Z,26.72
2017-03-30T01:32:48.074Z,26.62
2017-03-30T01:33:56.843Z,26.81
2017-03-30T01:35:05.616Z,26.72
2017-03-30T01:36:14.692Z,26.81
2017-03-30T01:37:23.450Z,26.81
2017-03-30T01:38:32.550Z,26.81
2017-03-30T01:39:41.315Z,26.72
2017-03-30T01:40:50.080Z,26.91
2017-03-30T01:41:58.845Z,26.81
2017-03-30T01:43:07.603Z,26.72
2017-03-30T01:44:16.364Z,26.81
2017-03-30T01:45:25.428Z,26.91
2017-03-30T01:46:34.194Z,26.72
2017-03-30T01:47:43.247Z,26.81
2017-03-30T01:48:52.011Z,26.91
2017-03-30T01:50:01.075Z,26.91
2017-03-30T01:51:10.142Z,26.91
2017-03-30T01:52:18.916Z,26.72
2017-03-30T01:53:27.873Z,26.62
2017-03-30T01:54:36.617Z,26.62
2017-03-30T01:55:45.637Z,26.81
2017-03-30T01:56:54.394Z,26.72
2017-03-30T01:58:03.759Z,26.81
2017-03-30T01:59:12.818Z,26.81
2017-03-30T02:00:21.575Z,27.01
2017-03-30T02:01:30.311Z,27.01
2017-03-30T02:02:39.034Z,26.91
2017-03-30T02:03:47.801Z,27.01
2017-03-30T02:04:56.550Z,26.72
2017-03-30T02:06:05.295Z,26.91
2017-03-30T02:07:14.014Z,26.81
2017-03-30T02:08:23.073Z,26.91
2017-03-30T02:09:32.446Z,26.81
2017-03-30T02:10:41.207Z,26.72
2017-03-30T02:11:49.992Z,26.91
2017-03-30T02:12:58.752Z,26.91
2017-03-30T02:14:07.487Z,26.91
2017-03-30T02:15:16.208Z,26.72
2017-03-30T02:16:32.229Z,26.72
2017-03-30T02:17:40.989Z,26.91
2017-03-30T02:18:49.748Z,26.72
2017-03-30T02:19:58.789Z,26.81
2017-03-30T02:21:07.520Z,26.81
2017-03-30T02:22:16.284Z,26.91
2017-03-30T02:23:25.041Z,26.81
2017-03-30T02:24:33.801Z,27.01
2017-03-30T02:25:43.266Z,26.81
2017-03-30T02:26:52.615Z,26.81
2017-03-30T02:28:01.636Z,26.91
2017-03-30T02:29:10.378Z,26.91
2017-03-30T02:30:19.099Z,26.62
2017-03-30T02:31:28.165Z,27.11
2017-03-30T02:32:37.232Z,26.72
2017-03-30T02:33:46.577Z,26.72
2017-03-30T02:34:55.574Z,26.81
2017-03-30T02:36:05.199Z,26.81
2017-03-30T02:37:14.238Z,26.72
2017-03-30T02:38:23.236Z,26.72
2017-03-30T02:39:32.265Z,26.62
2017-03-30T02:40:41.630Z,26.91
2017-03-30T02:41:50.691Z,26.53
2017-03-30T02:42:59.767Z,26.72
2017-03-30T02:44:08.838Z,26.53
2017-03-30T02:45:18.178Z,26.91
2017-03-30T02:46:27.280Z,26.91
2017-03-30T02:47:36.347Z,26.91
2017-03-30T02:48:45.098Z,26.62
2017-03-30T02:49:54.139Z,26.53
2017-03-30T02:51:02.867Z,27.01
2017-03-30T02:52:11.927Z,26.72
2017-03-30T02:53:20.694Z,26.81
2017-03-30T02:54:29.758Z,26.53
2017-03-30T02:55:38.516Z,26.53
2017-03-30T02:56:47.581Z,26.62
2017-03-30T02:57:56.823Z,26.62
2017-03-30T02:59:05.887Z,26.53
2017-03-30T03:00:14.651Z,26.53
2017-03-30T03:01:23.417Z,26.81
2017-03-30T03:02:32.170Z,26.43
2017-03-30T03:03:41.743Z,26.81
2017-03-30T03:04:50.816Z,26.62
2017-03-30T03:05:59.555Z,26.53
2017-03-30T03:07:08.288Z,26.62
2017-03-30T03:08:17.308Z,26.81
2017-03-30T03:09:26.060Z,26.43
2017-03-30T03:10:34.801Z,26.43
2017-03-30T03:11:43.558Z,26.33
2017-03-30T03:12:52.617Z,26.23
2017-03-30T03:14:01.373Z,26.91
2017-03-30T03:15:10.130Z,26.72
2017-03-30T03:16:18.887Z,26.72
2017-03-30T03:17:27.953Z,26.81
2017-03-30T03:18:36.995Z,26.23
2017-03-30T03:19:46.015Z,26.33
2017-03-30T03:20:54.750Z,26.72
2017-03-30T03:22:03.773Z,26.72
2017-03-30T03:23:13.429Z,26.33
2017-03-30T03:24:22.654Z,26.33
2017-03-30T03:25:31.422Z,26.33
2017-03-30T03:26:40.190Z,26.81
2017-03-30T03:27:48.927Z,26.81
2017-03-30T03:28:57.642Z,26.43
2017-03-30T03:30:06.640Z,26.81
2017-03-30T03:31:15.367Z,26.81
2017-03-30T03:32:24.427Z,26.62
2017-03-30T03:33:33.188Z,26.72
2017-03-30T03:34:42.150Z,26.72
2017-03-30T03:35:50.897Z,26.72
2017-03-30T03:36:59.625Z,26.91
2017-03-30T03:38:09.044Z,27.01
2017-03-30T03:39:17.783Z,27.01
2017-03-30T03:40:26.798Z,26.91
2017-03-30T03:41:35.858Z,26.72
2017-03-30T03:42:44.931Z,26.91
2017-03-30T03:43:53.682Z,26.91
2017-03-30T03:45:02.449Z,26.81
2017-03-30T03:46:11.547Z,26.91
2017-03-30T03:47:20.618Z,26.91
2017-03-30T03:48:29.661Z,27.01
2017-03-30T03:49:38.401Z,27.11
2017-03-30T03:50:47.464Z,26.72
2017-03-30T03:51:56.528Z,26.91
2017-03-30T03:53:05.312Z,26.91
2017-03-30T03:54:14.382Z,27.01
2017-03-30T03:55:23.451Z,26.72
2017-03-30T03:56:32.221Z,26.72
2017-03-30T03:57:41.286Z,26.91
2017-03-30T03:58:50.369Z,26.72
2017-03-30T03:59:59.118Z,26.91
2017-03-30T04:01:07.851Z,26.81
2017-03-30T04:02:16.802Z,26.72
2017-03-30T04:03:25.858Z,26.62
2017-03-30T04:04:34.929Z,26.72
2017-03-30T04:05:43.700Z,26.62
2017-03-30T04:06:52.461Z,26.62
2017-03-30T04:08:01.534Z,26.72
2017-03-30T04:09:10.576Z,26.81
2017-03-30T04:10:19.324Z,26.72
2017-03-30T04:11:28.390Z,26.72
2017-03-30T04:12:37.153Z,26.53
2017-03-30T04:13:45.907Z,26.72
2017-03-30T04:14:54.976Z,26.72
2017-03-30T04:16:04.354Z,26.62
2017-03-30T04:17:13.733Z,26.91
2017-03-30T04:18:22.835Z,26.53
2017-03-30T04:19:31.898Z,26.43
2017-03-30T04:20:40.965Z,26.53
2017-03-30T04:21:49.733Z,26.62
2017-03-30T04:22:59.109Z,26.72
2017-03-30T04:24:08.179Z,26.62
2017-03-30T04:25:17.455Z,26.62
2017-03-30T04:26:26.828Z,26.53
2017-03-30T04:27:35.591Z,26.53
2017-03-30T04:28:44.360Z,26.23
2017-03-30T04:29:53.713Z,26.23
2017-03-30T04:31:02.440Z,26.33
2017-03-30T04:32:11.488Z,26.62
2017-03-30T04:33:20.523Z,26.33
2017-03-30T04:34:29.586Z,26.72
2017-03-30T04:35:38.345Z,26.43
2017-03-30T04:36:47.101Z,26.72
2017-03-30T04:37:56.189Z,26.34
2017-03-30T04:39:05.236Z,26.81
2017-03-30T04:40:14.258Z,27.01
2017-03-30T04:41:23.027Z,26.43
2017-03-30T04:42:32.095Z,26.44
2017-03-30T04:43:41.441Z,26.44
2017-03-30T04:44:50.165Z,26.91
2017-03-30T04:45:59.229Z,26.91
2017-03-30T04:47:07.967Z,27.01
2017-03-30T04:48:16.727Z,26.43
2017-03-30T04:49:25.517Z,26.44
2017-03-30T04:50:34.247Z,26.06
2017-03-30T04:51:43.367Z,26.82
2017-03-30T04:52:52.944Z,26.34
2017-03-30T04:54:02.325Z,26.34
2017-03-30T04:55:11.397Z,26.44
2017-03-30T04:56:20.163Z,26.25
2017-03-30T04:57:29.228Z,26.54
2017-03-30T04:58:37.963Z,26.54
2017-03-30T04:59:46.681Z,26.92
2017-03-30T05:00:55.447Z,26.73
2017-03-30T05:02:04.219Z,26.73
2017-03-30T05:03:13.256Z,26.82
2017-03-30T05:04:22.280Z,26.15
2017-03-30T05:05:31.330Z,26.54
2017-03-30T05:06:40.051Z,26.54
2017-03-30T05:07:48.821Z,26.34
2017-03-30T05:08:58.507Z,26.64
2017-03-30T05:10:07.244Z,26.34
2017-03-30T05:11:16.262Z,26.73
2017-03-30T05:12:25.028Z,26.73
2017-03-30T05:13:34.103Z,26.54
2017-03-30T05:14:43.170Z,26.82
2017-03-30T05:15:52.213Z,26.34
2017-03-30T05:17:00.942Z,26.34
2017-03-30T05:18:10.002Z,26.64
2017-03-30T05:19:18.765Z,26.06
2017-03-30T05:20:27.837Z,25.86
2017-03-30T05:21:37.220Z,26.54
2017-03-30T05:22:46.494Z,26.54
2017-03-30T05:23:55.255Z,25.96
2017-03-30T05:25:04.019Z,26.15
2017-03-30T05:26:13.390Z,26.44
2017-03-30T05:27:22.430Z,26.34
2017-03-30T05:28:31.169Z,26.44
2017-03-30T05:29:40.150Z,26.54
2017-03-30T05:30:48.911Z,26.06
2017-03-30T05:31:58.276Z,26.06
2017-03-30T05:33:07.050Z,25.96
2017-03-30T05:34:15.822Z,26.54
2017-03-30T05:35:24.889Z,26.54
2017-03-30T05:36:33.953Z,25.96
2017-03-30T05:37:42.716Z,26.54
2017-03-30T05:38:51.754Z,27.02
2017-03-30T05:40:00.790Z,27.02
2017-03-30T05:41:09.557Z,27.22
2017-03-30T05:42:18.951Z,27.4
2017-03-30T05:43:27.688Z,27.22
2017-03-30T05:44:36.711Z,27.31
2017-03-30T05:45:45.779Z,27.22
2017-03-30T05:46:54.542Z,27.6
2017-03-30T05:48:03.567Z,27.5
2017-03-30T05:49:12.287Z,27.31
2017-03-30T05:50:21.061Z,27.4
2017-03-30T05:51:29.816Z,27.31
2017-03-30T05:52:38.579Z,27.22
2017-03-30T05:53:47.348Z,27.31
2017-03-30T05:54:56.113Z,27.31
2017-03-30T05:56:04.883Z,27.22
2017-03-30T05:57:13.956Z,27.22
2017-03-30T05:58:23.021Z,27.22
2017-03-30T05:59:32.090Z,27.02
2017-03-30T06:00:40.864Z,27.22
2017-03-30T06:01:49.624Z,27.31
2017-03-30T06:02:58.996Z,27.22
2017-03-30T06:04:07.768Z,27.02
2017-03-30T06:05:16.541Z,27.03
2017-03-30T06:06:25.308Z,26.93
2017-03-30T06:07:34.047Z,27.02
2017-03-30T06:08:42.972Z,27.02
2017-03-30T06:09:51.743Z,27.02
2017-03-30T06:11:00.534Z,26.92
2017-03-30T06:12:09.905Z,27.12
2017-03-30T06:13:18.638Z,27.23
2017-03-30T06:14:27.565Z,26.82
2017-03-30T06:15:36.612Z,27.03
2017-03-30T06:16:45.985Z,27.02
2017-03-30T06:17:54.720Z,27.03
2017-03-30T06:19:03.441Z,27.03
2017-03-30T06:20:12.237Z,27.02
2017-03-30T06:21:20.974Z,27.03
2017-03-30T06:22:29.999Z,26.84
2017-03-30T06:23:38.767Z,26.75
2017-03-30T06:24:47.522Z,26.84
2017-03-30T06:25:56.279Z,26.75
2017-03-30T06:27:05.014Z,26.75
2017-03-30T06:28:13.750Z,26.45
2017-03-30T06:29:22.769Z,26.75
2017-03-30T06:30:32.136Z,26.84
2017-03-30T06:31:41.204Z,26.93
2017-03-30T06:32:50.268Z,26.26
2017-03-30T06:33:59.029Z,26.93
2017-03-30T06:35:07.805Z,26.84
2017-03-30T06:36:16.876Z,26.26
2017-03-30T06:37:26.267Z,26.75
2017-03-30T06:38:35.345Z,26.35
2017-03-30T06:39:44.358Z,26.65
2017-03-30T06:40:53.108Z,26.26
2017-03-30T06:42:01.837Z,26.45
2017-03-30T06:43:10.629Z,26.56
2017-03-30T06:44:19.391Z,26.35
2017-03-30T06:45:28.152Z,26.37
2017-03-30T06:46:36.921Z,26.28
2017-03-30T06:47:45.675Z,26.46
2017-03-30T06:48:55.254Z,26.08
2017-03-30T06:50:04.327Z,25.89
2017-03-30T06:51:13.368Z,25.79
2017-03-30T06:52:22.696Z,25.89
2017-03-30T06:53:31.454Z,25.89
2017-03-30T06:54:40.179Z,26.08
2017-03-30T06:55:49.523Z,25.98
2017-03-30T06:56:58.262Z,26.08
2017-03-30T06:58:07.559Z,26.18
2017-03-30T06:59:16.276Z,25.6
2017-03-30T07:00:25.029Z,25.79
2017-03-30T07:01:34.063Z,26.08
2017-03-30T07:02:42.760Z,26.18
2017-03-30T07:03:51.499Z,25.31
2017-03-30T07:05:00.573Z,25.79
2017-03-30T07:06:09.336Z,25.4
2017-03-30T07:07:18.098Z,25.5
2017-03-30T07:08:26.859Z,25.42
2017-03-30T07:09:35.623Z,25.6
2017-03-30T07:10:44.894Z,25.7
2017-03-30T07:11:53.950Z,25.31
2017-03-30T07:13:02.683Z,25.61
2017-03-30T07:14:11.450Z,25.23
2017-03-30T07:15:20.220Z,25.61
2017-03-30T07:16:28.991Z,25.03
2017-03-30T07:17:37.749Z,25.13
2017-03-30T07:18:46.508Z,25.03
2017-03-30T07:19:55.560Z,24.93
2017-03-30T07:21:04.603Z,24.74
2017-03-30T07:22:13.368Z,25.03
2017-03-30T07:23:22.130Z,24.65
2017-03-30T07:24:31.204Z,25.04
2017-03-30T07:25:40.266Z,24.66
2017-03-30T07:26:49.485Z,25.04
2017-03-30T07:27:58.524Z,24.46
2017-03-30T07:29:07.878Z,24.46
2017-03-30T07:30:16.640Z,24.27
2017-03-30T07:31:25.408Z,24.37
2017-03-30T07:32:34.169Z,23.9
2017-03-30T07:33:42.934Z,24.18
2017-03-30T07:34:51.778Z,23.99
2017-03-30T07:36:00.838Z,23.7
2017-03-30T07:37:09.590Z,23.5
2017-03-30T07:38:18.364Z,23.6
2017-03-30T07:39:27.745Z,23.8
2017-03-30T07:40:36.484Z,23.5
2017-03-30T07:41:45.177Z,23.52
2017-03-30T07:42:53.902Z,23.42
2017-03-30T07:44:02.977Z,23.23
2017-03-30T07:45:12.361Z,23.03
2017-03-30T07:46:21.141Z,22.65
2017-03-30T07:47:29.899Z,22.56
2017-03-30T07:48:38.966Z,22.66
2017-03-30T07:49:48.034Z,22.66
2017-03-30T07:50:57.106Z,22.09
2017-03-30T07:52:05.878Z,22.28
2017-03-30T07:53:14.647Z,21.7
2017-03-30T07:54:23.417Z,21.89
2017-03-30T07:55:32.446Z,21.61
2017-03-30T07:56:41.465Z,21.7
2017-03-30T07:57:50.228Z,21.51
2017-03-30T07:58:59.255Z,21.42
2017-03-30T08:00:08.335Z,21.13
2017-03-30T08:01:17.406Z,21.13
2017-03-30T08:02:26.473Z,21.23
2017-03-30T08:03:35.549Z,21.33
2017-03-30T08:04:44.316Z,21.03
2017-03-30T08:05:53.080Z,21.03
2017-03-30T08:07:02.645Z,21.23
2017-03-30T08:08:11.725Z,21.42
2017-03-30T08:09:20.494Z,21.71
2017-03-30T08:10:29.562Z,21.61
2017-03-30T08:11:38.631Z,21.61
2017-03-30T08:12:47.393Z,21.71
2017-03-30T08:13:56.163Z,21.61
2017-03-30T08:15:05.529Z,21.61
2017-03-30T08:16:14.905Z,21.71
2017-03-30T08:17:23.668Z,21.41
2017-03-30T08:18:32.732Z,21.61
2017-03-30T08:19:41.496Z,21.51
2017-03-30T08:20:50.308Z,21.61
2017-03-30T08:21:59.076Z,21.51
2017-03-30T08:23:08.658Z,21.81
2017-03-30T08:24:17.426Z,21.71
2017-03-30T08:25:26.188Z,21.61
2017-03-30T08:26:34.956Z,21.81
2017-03-30T08:27:44.023Z,21.71
2017-03-30T08:28:53.411Z,21.51
2017-03-30T08:30:02.179Z,21.71
2017-03-30T08:31:11.246Z,21.61
2017-03-30T08:32:20.618Z,21.71
2017-03-30T08:33:29.386Z,21.81
2017-03-30T08:34:38.427Z,21.71
2017-03-30T08:35:47.159Z,21.42
2017-03-30T08:36:56.228Z,21.71
2017-03-30T08:38:04.964Z,21.51
2017-03-30T08:39:13.684Z,21.42
2017-03-30T08:40:22.450Z,21.42
2017-03-30T08:41:31.212Z,21.71
2017-03-30T08:42:40.589Z,21.61
2017-03-30T08:43:49.329Z,21.51
2017-03-30T08:44:58.668Z,21.71
2017-03-30T08:46:07.430Z,22
2017-03-30T08:47:16.227Z,21.91
2017-03-30T08:48:24.994Z,21.89
2017-03-30T08:49:33.772Z,21.8
2017-03-30T08:50:43.152Z,21.61
2017-03-30T08:51:51.920Z,21.89
2017-03-30T08:53:00.985Z,22.09
2017-03-30T08:54:10.354Z,22.19
2017-03-30T08:55:19.111Z,22.09
2017-03-30T08:56:28.178Z,22.19
2017-03-30T08:57:37.247Z,22.09
2017-03-30T08:58:46.369Z,22.09
2017-03-30T08:59:55.137Z,22.19
2017-03-30T09:01:04.100Z,22.28
2017-03-30T09:02:12.838Z,21.99
2017-03-30T09:03:21.859Z,22.19
2017-03-30T09:04:30.929Z,22.19
2017-03-30T09:05:39.999Z,21.8
2017-03-30T09:06:49.375Z,21.61
2017-03-30T09:07:58.626Z,22.09
2017-03-30T09:09:07.959Z,21.89
2017-03-30T09:10:16.733Z,21.42
2017-03-30T09:11:25.506Z,21.42
2017-03-30T09:12:34.276Z,21.71
2017-03-30T09:13:43.024Z,21.61
2017-03-30T09:14:51.754Z,21.61
2017-03-30T09:16:00.800Z,21.61
2017-03-30T09:17:09.833Z,21.13
2017-03-30T09:18:18.537Z,21.14
2017-03-30T09:19:27.259Z,20.95
2017-03-30T09:20:36.333Z,20.57
2017-03-30T09:21:45.100Z,19.9
2017-03-30T09:22:54.779Z,19.04
2017-03-30T09:24:04.145Z,18.46
2017-03-30T09:25:12.912Z,17.6
2017-03-30T09:26:21.677Z,16.93
2017-03-30T09:27:30.757Z,16.64
2017-03-30T09:28:39.523Z,16.07
2017-03-30T09:29:48.946Z,15.98
2017-03-30T09:30:57.684Z,15.5
2017-03-30T09:32:06.716Z,14.63
2017-03-30T09:33:15.767Z,14.44
2017-03-30T09:34:24.486Z,13.97
2017-03-30T09:35:33.254Z,13.68
2017-03-30T09:36:42.323Z,13.2
2017-03-30T09:37:51.594Z,13.01
2017-03-30T09:39:00.970Z,12.43
2017-03-30T09:40:10.035Z,11.94
2017-03-30T09:41:19.109Z,11.85
2017-03-30T09:42:27.875Z,11.37
2017-03-30T09:43:36.619Z,10.88
2017-03-30T09:44:45.618Z,10.5
2017-03-30T09:45:54.672Z,10.11
2017-03-30T09:47:03.753Z,10.31
2017-03-30T09:48:12.522Z,9.92
2017-03-30T09:49:21.260Z,9.53
2017-03-30T09:50:30.029Z,9.24
2017-03-30T09:51:39.078Z,9.25
2017-03-30T09:52:48.085Z,8.86
2017-03-30T09:53:57.109Z,8.76
2017-03-30T09:55:05.876Z,8.66
2017-03-30T09:56:14.618Z,8.27
2017-03-30T09:57:23.349Z,8.17
2017-03-30T09:58:32.076Z,8.08
2017-03-30T09:59:41.447Z,7.79
2017-03-30T10:00:50.933Z,7.49
2017-03-30T10:01:59.976Z,7.69
2017-03-30T10:03:09.003Z,7.3
2017-03-30T10:04:17.776Z,7.1
2017-03-30T10:05:26.818Z,7.1
2017-03-30T10:06:35.847Z,7.1
2017-03-30T10:07:44.907Z,6.62
2017-03-30T10:08:54.274Z,6.62
2017-03-30T10:10:03.048Z,6.52
2017-03-30T10:11:11.830Z,6.32
2017-03-30T10:12:20.904Z,6.42
2017-03-30T10:13:29.674Z,6.23
2017-03-30T10:14:38.416Z,6.13
2017-03-30T10:15:47.146Z,6.13
2017-03-30T10:16:56.194Z,5.83
2017-03-30T10:18:05.209Z,5.94
2017-03-30T10:19:14.247Z,5.94
2017-03-30T10:20:23.320Z,5.74
2017-03-30T10:21:32.082Z,5.64
2017-03-30T10:22:41.182Z,5.44
2017-03-30T10:23:49.951Z,5.45
2017-03-30T10:24:58.720Z,5.25
2017-03-30T10:26:07.476Z,5.15
2017-03-30T10:27:16.547Z,5.05
2017-03-30T10:28:25.315Z,5.26
2017-03-30T10:29:34.378Z,4.66
2017-03-30T10:30:43.451Z,4.96
2017-03-30T10:31:53.136Z,4.56
2017-03-30T10:33:02.210Z,4.76
2017-03-30T10:34:10.970Z,4.86
2017-03-30T10:35:19.745Z,4.96
2017-03-30T10:36:28.519Z,4.47
2017-03-30T10:37:37.773Z,4.27
2017-03-30T10:38:46.848Z,4.66
2017-03-30T10:39:55.926Z,4.47
2017-03-30T10:41:05.297Z,4.37
2017-03-30T10:42:14.302Z,4.47
2017-03-30T10:43:23.053Z,4.37
2017-03-30T10:44:32.119Z,4.27
2017-03-30T10:45:40.881Z,4.57
2017-03-30T10:46:49.623Z,3.88
2017-03-30T10:47:58.667Z,4.17
2017-03-30T10:49:07.416Z,4.28
2017-03-30T10:50:16.451Z,3.78
2017-03-30T10:51:25.389Z,3.88
2017-03-30T10:52:34.396Z,3.88
2017-03-30T10:53:43.126Z,3.68
2017-03-30T10:54:52.196Z,3.88
2017-03-30T10:56:00.943Z,3.58
2017-03-30T10:57:09.950Z,3.78
2017-03-30T10:58:18.681Z,3.78
2017-03-30T10:59:27.451Z,3.19
2017-03-30T11:00:36.215Z,3.88
2017-03-30T11:01:45.451Z,3.39
2017-03-30T11:02:54.216Z,3.58
2017-03-30T11:04:02.983Z,3.58
2017-03-30T11:05:11.740Z,3.28
2017-03-30T11:06:20.814Z,3.09
2017-03-30T11:07:29.582Z,3.28
2017-03-30T11:08:38.654Z,3.89
2017-03-30T11:09:47.428Z,3.09
2017-03-30T11:10:56.406Z,3.29
2017-03-30T11:12:05.183Z,3.19
2017-03-30T11:13:13.951Z,3.19
2017-03-30T11:14:23.023Z,3.29
2017-03-30T11:15:32.123Z,3.09
2017-03-30T11:16:41.501Z,3.19
2017-03-30T11:17:50.557Z,3.89
2017-03-30T11:18:59.586Z,3.19
2017-03-30T11:20:08.352Z,3.49
2017-03-30T11:21:17.420Z,3.28
2017-03-30T11:22:26.203Z,3.28
2017-03-30T11:23:35.272Z,3.19
2017-03-30T11:24:44.043Z,2.99
2017-03-30T11:25:53.117Z,3.19
2017-03-30T11:27:01.861Z,2.89
2017-03-30T11:28:10.588Z,3.19
2017-03-30T11:29:19.362Z,2.99
2017-03-30T11:30:28.105Z,2.89
2017-03-30T11:31:36.833Z,2.69
2017-03-30T11:32:46.403Z,2.8
2017-03-30T11:33:55.171Z,2.8
2017-03-30T11:35:03.925Z,2.89
2017-03-30T11:36:12.957Z,2.69
2017-03-30T11:37:22.050Z,2.29
2017-03-30T11:38:30.833Z,2.59
2017-03-30T11:39:39.614Z,2.8
2017-03-30T11:40:48.365Z,2.8
2017-03-30T11:41:57.101Z,2.7
2017-03-30T11:43:06.003Z,2.8
2017-03-30T11:44:15.034Z,2.5
2017-03-30T11:45:23.804Z,2.4
2017-03-30T11:46:32.885Z,2.5
2017-03-30T11:47:41.661Z,2.4
2017-03-30T11:48:50.429Z,2.4
2017-03-30T11:49:59.189Z,2.4
2017-03-30T11:51:07.917Z,2.4
2017-03-30T11:52:16.675Z,2.59
2017-03-30T11:53:25.412Z,2.5
2017-03-30T11:54:34.186Z,2.4
2017-03-30T11:55:43.223Z,2.29
2017-03-30T11:56:51.989Z,2.4
2017-03-30T11:58:01.067Z,2.2
2017-03-30T11:59:10.109Z,2.8
2017-03-30T12:00:18.849Z,2.4
2017-03-30T12:01:27.620Z,2.5
2017-03-30T12:02:36.594Z,2.59
2017-03-30T12:03:46.161Z,2.99
2017-03-30T12:04:55.797Z,3.29
2017-03-30T12:06:04.891Z,3.58
2017-03-30T12:07:13.968Z,4.08
2017-03-30T12:08:22.745Z,4.67
2017-03-30T12:09:31.517Z,5.16
2017-03-30T12:10:40.896Z,5.94
2017-03-30T12:11:50.324Z,5.94
2017-03-30T12:12:59.097Z,6.63
2017-03-30T12:14:08.042Z,6.92
2017-03-30T12:15:17.383Z,7.31
2017-03-30T12:16:26.157Z,7.89
2017-03-30T12:17:34.930Z,8.18
2017-03-30T12:18:43.702Z,8.37
2017-03-30T12:19:52.772Z,8.47
2017-03-30T12:21:01.539Z,8.66
2017-03-30T12:22:10.623Z,9.05
2017-03-30T12:23:19.397Z,9.14
2017-03-30T12:24:28.407Z,9.93
2017-03-30T12:25:37.481Z,10.31
2017-03-30T12:26:46.256Z,10.41
2017-03-30T12:27:55.052Z,10.6
2017-03-30T12:29:04.083Z,10.89
2017-03-30T12:30:13.172Z,11.08
2017-03-30T12:31:21.948Z,11.37
2017-03-30T12:32:30.726Z,11.96
2017-03-30T12:33:39.497Z,12.05
2017-03-30T12:34:48.389Z,11.95
2017-03-30T12:35:57.698Z,12.24
2017-03-30T12:37:06.428Z,12.73
2017-03-30T12:38:15.196Z,12.63
2017-03-30T12:39:24.268Z,13.11
2017-03-30T12:40:33.063Z,13.31
2017-03-30T12:41:41.834Z,13.49
2017-03-30T12:42:50.858Z,13.69
2017-03-30T12:43:59.950Z,13.49
2017-03-30T12:45:08.994Z,13.68
2017-03-30T12:46:18.018Z,14.37
2017-03-30T12:47:26.785Z,14.46
2017-03-30T12:48:35.556Z,14.36
2017-03-30T12:49:44.299Z,14.65
2017-03-30T12:50:53.065Z,14.94
2017-03-30T12:52:02.136Z,15.43
2017-03-30T12:53:10.876Z,15.12
2017-03-30T12:54:19.908Z,14.83
2017-03-30T12:55:28.683Z,14.92
2017-03-30T12:56:37.425Z,15.41
2017-03-30T12:57:46.166Z,15.8
2017-03-30T12:58:54.927Z,16
2017-03-30T13:00:03.696Z,16.09
2017-03-30T13:01:12.466Z,16.09
2017-03-30T13:02:21.234Z,16.28
2017-03-30T13:03:30.005Z,16.09
2017-03-30T13:04:38.775Z,16.19
2017-03-30T13:05:48.155Z,16.56
2017-03-30T13:06:56.931Z,16.37
2017-03-30T13:08:06.301Z,16.47
2017-03-30T13:09:15.077Z,16.76
2017-03-30T13:10:23.844Z,16.47
2017-03-30T13:11:32.621Z,16.86
2017-03-30T13:12:41.355Z,16.85
2017-03-30T13:13:50.088Z,16.85
2017-03-30T13:14:58.848Z,16.95
2017-03-30T13:16:07.612Z,17.05
2017-03-30T13:17:16.382Z,16.95
2017-03-30T13:18:25.458Z,17.23
2017-03-30T13:19:34.216Z,17.23
2017-03-30T13:20:43.568Z,17.23
2017-03-30T13:21:52.566Z,17.72
2017-03-30T13:23:01.890Z,17.52
2017-03-30T13:24:10.652Z,17.72
2017-03-30T13:25:19.722Z,17.62
2017-03-30T13:26:28.796Z,17.43
2017-03-30T13:27:37.563Z,17.52
2017-03-30T13:28:46.313Z,17.8
2017-03-30T13:29:55.031Z,17.61
2017-03-30T13:31:03.793Z,18.1
2017-03-30T13:32:12.566Z,18
2017-03-30T13:33:21.634Z,18.19
2017-03-30T13:34:30.392Z,18.48
2017-03-30T13:35:39.463Z,18.29
2017-03-30T13:36:48.718Z,18.48
2017-03-30T13:37:57.455Z,18.38
2017-03-30T13:39:06.226Z,18.48
2017-03-30T13:40:15.271Z,18.48
2017-03-30T13:41:23.966Z,18.68
2017-03-30T13:42:32.711Z,18.77
2017-03-30T13:43:41.774Z,18.87
2017-03-30T13:44:50.837Z,19.15
2017-03-30T13:45:59.599Z,18.86
2017-03-30T13:47:08.677Z,19.06
2017-03-30T13:48:17.748Z,19.15
2017-03-30T13:49:26.514Z,18.96
2017-03-30T13:50:35.270Z,19.15
2017-03-30T13:51:44.035Z,19.15
2017-03-30T13:52:53.095Z,19.24
2017-03-30T13:54:01.850Z,19.25
2017-03-30T13:55:10.924Z,19.06
2017-03-30T13:56:19.698Z,19.25
2017-03-30T13:57:28.466Z,19.04
2017-03-30T13:58:37.202Z,19.53
2017-03-30T13:59:46.226Z,19.53
2017-03-30T14:00:55.269Z,19.82
2017-03-30T14:02:04.237Z,19.82
2017-03-30T14:03:13.005Z,19.73
2017-03-30T14:04:21.745Z,19.73
2017-03-30T14:05:30.711Z,19.73
2017-03-30T14:06:39.479Z,19.92
2017-03-30T14:07:48.197Z,19.82
2017-03-30T14:08:56.962Z,19.62
2017-03-30T14:10:05.721Z,20.2
2017-03-30T14:11:14.465Z,20.01
2017-03-30T14:12:23.693Z,20.3
2017-03-30T14:13:32.457Z,20.3
2017-03-30T14:14:41.197Z,20.01
2017-03-30T14:15:50.137Z,20.3
2017-03-30T14:16:58.906Z,20.39
2017-03-30T14:18:07.666Z,20.1
2017-03-30T14:19:16.428Z,20.2
2017-03-30T14:20:25.202Z,20.1
2017-03-30T14:21:33.987Z,20.39
2017-03-30T14:22:43.059Z,20.19
2017-03-30T14:23:51.827Z,20.39
2017-03-30T14:25:00.590Z,20.29
2017-03-30T14:26:09.333Z,20.09
2017-03-30T14:27:18.040Z,20.19
2017-03-30T14:28:26.768Z,20.58
2017-03-30T14:29:35.814Z,20.77
2017-03-30T14:30:44.837Z,21.06
2017-03-30T14:31:53.776Z,20.87
2017-03-30T14:33:02.500Z,20.77
2017-03-30T14:34:11.263Z,20.77
2017-03-30T14:35:20.019Z,21.06
2017-03-30T14:36:28.787Z,20.87
2017-03-30T14:37:37.865Z,21.06
2017-03-30T14:38:46.662Z,20.97
2017-03-30T14:39:56.690Z,20.77
2017-03-30T14:41:05.453Z,21.05
2017-03-30T14:42:14.212Z,20.97
2017-03-30T14:43:22.975Z,21.15
2017-03-30T14:44:31.953Z,21.06
2017-03-30T14:45:41.367Z,21.25
2017-03-30T14:46:50.436Z,21.05
2017-03-30T14:47:59.478Z,21.05
2017-03-30T14:49:08.220Z,21.15
2017-03-30T14:50:16.983Z,20.96
2017-03-30T14:51:25.744Z,21.25
2017-03-30T14:52:34.818Z,21.34
2017-03-30T14:53:43.581Z,20.96
2017-03-30T14:54:52.653Z,21.25
2017-03-30T14:56:01.699Z,21.34